Time;durP1;ratioP1;P1;durP2;ratioP2;P2;SDS_P1;SDS_P2;PMS_P1;PMS_P2;Temp;Humidity;BMP_temperature;BMP_pressure;BME280_temperature;BME280_humidity;BME280_pressure;Samples;Min_cycle;Max_cycle;Signal;HPM_P1;HPM_P2
2022/10/07 00:01:06;;;;;;;7.13;3.05;;;;;;;10.75;81.48;102648.63;5041752;28;20046;-84
2022/10/07 00:03:32;;;;;;;7.28;3.42;;;;;;;10.77;81.40;102651.91;5028767;28;20124;-83
2022/10/07 00:06:18;;;;;;;7.10;3.03;;;;;;;10.68;81.80;102645.50;5045942;28;20417;-83
2022/10/07 00:08:46;;;;;;;7.82;3.28;;;;;;;10.86;81.17;102651.06;5049276;28;20980;-84
2022/10/07 00:11:17;;;;;;;7.47;3.03;;;;;;;10.82;81.63;102648.09;5043150;28;20080;-83
2022/10/07 00:13:44;;;;;;;11.77;3.72;;;;;;;10.77;81.48;102642.66;5033117;28;20028;-83
2022/10/07 00:16:16;;;;;;;10.75;3.92;;;;;;;10.60;81.71;102646.34;5024234;28;20025;-83
2022/10/07 00:18:42;;;;;;;9.43;3.05;;;;;;;10.60;81.42;102632.34;5047388;28;20027;-83
2022/10/07 00:21:14;;;;;;;5.90;3.20;;;;;;;10.72;81.71;102640.88;5045359;28;20461;-83
2022/10/07 00:23:41;;;;;;;12.07;3.55;;;;;;;10.37;83.28;102634.56;5047410;28;20039;-83
2022/10/07 00:26:09;;;;;;;9.38;4.03;;;;;;;10.44;83.64;102636.88;5047110;28;20087;-83
2022/10/07 00:28:35;;;;;;;13.77;5.10;;;;;;;10.56;82.43;102634.19;5043728;28;20033;-84
2022/10/07 00:31:22;;;;;;;8.30;3.65;;;;;;;10.40;82.99;102627.50;5028281;28;20052;-83
2022/10/07 00:33:48;;;;;;;10.35;4.18;;;;;;;10.41;83.23;102626.34;5043351;28;20080;-83
2022/10/07 00:36:36;;;;;;;6.65;3.45;;;;;;;10.55;82.54;102626.94;5045434;28;20053;-82
2022/10/07 00:39:05;;;;;;;9.90;3.45;;;;;;;10.71;82.02;102614.03;5030210;28;20481;-83
2022/10/07 00:41:40;;;;;;;16.23;4.38;;;;;;;10.14;83.84;102618.00;5045717;28;20485;-83
2022/10/07 00:44:30;;;;;;;6.63;2.63;;;;;;;10.30;83.83;102621.09;5039096;28;20087;-82
2022/10/07 00:47:32;;;;;;;8.95;3.42;;;;;;;10.30;83.20;102601.50;5029321;28;20033;-83
2022/10/07 00:50:11;;;;;;;9.65;3.97;;;;;;;10.57;82.64;102605.03;5039824;28;20078;-82
2022/10/07 00:52:41;;;;;;;10.10;3.50;;;;;;;10.55;82.21;102596.16;5042748;28;20493;-83
2022/10/07 00:55:12;;;;;;;7.30;2.90;;;;;;;10.57;82.10;102591.03;5052879;22;20156;-83
2022/10/07 00:57:39;;;;;;;6.85;3.40;;;;;;;10.47;82.09;102597.00;5043433;28;20024;-82
2022/10/07 01:00:08;;;;;;;6.30;3.55;;;;;;;10.56;82.24;102597.78;5028846;28;20047;-83
2022/10/07 01:02:34;;;;;;;10.00;4.00;;;;;;;10.61;82.04;102592.00;5041462;28;20036;-82
2022/10/07 01:05:01;;;;;;;8.90;3.33;;;;;;;10.57;81.45;102577.03;5049367;28;20024;-82
2022/10/07 01:07:27;;;;;;;11.88;3.60;;;;;;;10.50;82.52;102576.75;5048187;28;20024;-83
2022/10/07 01:09:56;;;;;;;12.10;3.67;;;;;;;10.62;81.93;102592.81;5028521;28;20402;-83
2022/10/07 01:12:45;;;;;;;5.13;3.00;;;;;;;10.70;81.45;102577.97;5050005;28;20057;-83
2022/10/07 01:15:23;;;;;;;11.07;3.72;;;;;;;10.72;81.25;102579.25;5045252;28;20094;-83
2022/10/07 01:17:52;;;;;;;9.45;3.20;;;;;;;10.63;81.63;102575.69;5048933;28;20439;-83
2022/10/07 01:20:45;;;;;;;9.55;3.03;;;;;;;10.47;82.54;102574.59;5057373;28;20561;-83
2022/10/07 01:23:43;;;;;;;11.95;3.97;;;;;;;10.51;82.51;102565.19;5057052;28;20031;-83
2022/10/07 01:26:47;;;;;;;10.60;3.55;;;;;;;10.60;81.70;102550.34;5045398;28;20384;-83
2022/10/07 01:29:18;;;;;;;6.85;3.30;;;;;;;10.65;81.59;102556.56;5034473;28;20037;-83
2022/10/07 01:31:52;;;;;;;10.32;3.35;;;;;;;10.62;81.48;102554.44;5028751;28;20025;-82
2022/10/07 01:34:22;;;;;;;6.35;2.80;;;;;;;10.48;82.65;102549.09;5044770;28;20021;-83
2022/10/07 01:36:51;;;;;;;8.18;3.15;;;;;;;10.62;81.93;102545.22;5031455;28;20025;-83
2022/10/07 01:39:21;;;;;;;10.73;3.35;;;;;;;10.37;82.96;102526.25;5045052;28;20041;-83
2022/10/07 01:41:48;;;;;;;7.53;3.38;;;;;;;10.38;83.23;102522.28;5047296;28;20396;-83
2022/10/07 01:44:13;;;;;;;8.82;3.75;;;;;;;10.33;83.60;102525.28;5049497;28;20075;-83
2022/10/07 01:46:38;;;;;;;14.02;3.40;;;;;;;10.46;82.69;102517.81;5047892;28;20053;-83
2022/10/07 01:49:05;;;;;;;11.75;3.40;;;;;;;10.54;82.61;102510.50;5044900;28;20037;-82
2022/10/07 01:51:34;;;;;;;7.45;3.20;;;;;;;10.55;82.27;102514.94;5031624;28;20024;-83
2022/10/07 01:54:02;;;;;;;5.18;2.72;;;;;;;10.41;83.37;102514.38;5044979;28;20045;-83
2022/10/07 01:56:40;;;;;;;8.88;3.08;;;;;;;10.44;83.30;102508.91;5048715;28;20377;-83
2022/10/07 01:59:05;;;;;;;6.50;2.83;;;;;;;10.37;83.40;102503.84;5051019;28;20021;-83
2022/10/07 02:01:45;;;;;;;8.45;3.38;;;;;;;10.52;82.87;102501.63;5053919;28;21972;-83
2022/10/07 02:04:37;;;;;;;7.40;3.72;;;;;;;10.45;84.38;102509.72;5029174;28;20110;-83
2022/10/07 02:07:28;;;;;;;10.77;4.00;;;;;;;10.32;84.21;102492.81;5048683;28;20021;-83
2022/10/07 02:10:12;;;;;;;11.15;4.22;;;;;;;10.40;84.57;102491.16;5033425;28;20032;-83
2022/10/07 02:13:07;;;;;;;8.65;2.88;;;;;;;10.29;84.73;102489.88;5033739;28;20037;-83
2022/10/07 02:15:44;;;;;;;9.40;3.70;;;;;;;10.08;85.99;102484.22;5032606;28;20024;-83
2022/10/07 02:18:14;;;;;;;7.22;2.92;;;;;;;10.20;85.00;102483.47;5050200;28;20028;-83
2022/10/07 02:20:42;;;;;;;8.35;3.75;;;;;;;10.30;84.12;102474.75;5048153;28;20059;-83
2022/10/07 02:23:10;;;;;;;11.27;3.90;;;;;;;10.03;85.56;102470.38;5049763;28;20021;-83
2022/10/07 02:25:40;;;;;;;11.90;4.03;;;;;;;10.21;85.43;102471.97;5029572;28;20032;-83
2022/10/07 02:28:08;;;;;;;12.43;3.28;;;;;;;10.15;85.39;102473.31;5048083;28;20108;-83
2022/10/07 02:30:35;;;;;;;7.47;2.70;;;;;;;10.09;85.62;102471.84;5030623;28;20053;-82
2022/10/07 02:33:03;;;;;;;11.60;3.05;;;;;;;10.15;85.44;102462.91;5043639;28;20029;-82
2022/10/07 02:35:42;;;;;;;8.55;3.10;;;;;;;10.28;84.74;102454.63;5049616;28;20071;-83
2022/10/07 02:38:13;;;;;;;10.30;3.80;;;;;;;10.05;85.57;102449.31;5049370;28;20163;-83
2022/10/07 02:40:43;;;;;;;11.35;3.90;;;;;;;10.20;85.53;102459.09;5038645;28;20025;-83
2022/10/07 02:43:29;;;;;;;11.50;3.42;;;;;;;10.23;84.59;102447.25;5039863;28;20111;-83
2022/10/07 02:46:07;;;;;;;7.45;3.78;;;;;;;10.25;84.74;102444.94;5054566;28;20033;-83
2022/10/07 02:48:42;;;;;;;11.55;3.15;;;;;;;10.30;84.77;102436.38;5050619;28;20431;-83
2022/10/07 02:51:17;;;;;;;7.40;3.63;;;;;;;10.08;85.90;102433.84;5045367;28;20078;-83
2022/10/07 02:53:43;;;;;;;10.23;4.25;;;;;;;10.31;84.63;102431.63;5042843;28;20045;-83
2022/10/07 02:56:08;;;;;;;6.82;2.78;;;;;;;10.40;83.68;102428.75;5028060;28;20137;-83
2022/10/07 02:58:35;;;;;;;8.82;4.57;;;;;;;10.27;84.60;102425.84;5028134;28;20020;-84
2022/10/07 03:01:04;;;;;;;8.85;3.55;;;;;;;10.20;85.18;102433.09;5043866;28;20033;-83
2022/10/07 03:03:30;;;;;;;12.70;3.40;;;;;;;10.14;85.27;102435.28;5050179;28;20059;-83
2022/10/07 03:05:56;;;;;;;11.48;3.53;;;;;;;10.19;84.78;102429.50;5048781;28;20021;-83
2022/10/07 03:08:22;;;;;;;7.35;3.45;;;;;;;10.09;85.79;102435.47;5025489;28;20409;-83
2022/10/07 03:10:47;;;;;;;9.30;3.17;;;;;;;10.19;85.15;102423.91;5045502;28;20032;-83
2022/10/07 03:13:14;;;;;;;12.73;3.63;;;;;;;10.14;86.09;102422.13;5028332;28;20030;-82
2022/10/07 03:15:40;;;;;;;12.32;3.92;;;;;;;10.00;86.44;102420.72;5042293;28;20021;-83
2022/10/07 03:18:06;;;;;;;9.13;4.05;;;;;;;9.93;86.81;102407.25;5029247;28;20457;-82
2022/10/07 03:20:31;;;;;;;13.52;4.15;;;;;;;9.91;87.20;102404.78;5028967;28;20020;-83
2022/10/07 03:23:00;;;;;;;10.32;3.67;;;;;;;9.90;87.63;102411.53;5029328;28;20421;-82
2022/10/07 03:25:26;;;;;;;13.13;3.42;;;;;;;9.65;89.35;102409.66;5046879;28;20032;-83
2022/10/07 03:27:53;;;;;;;12.75;3.80;;;;;;;9.83;88.10;102410.44;5028352;28;20103;-83
2022/10/07 03:30:21;;;;;;;13.07;3.78;;;;;;;9.76;88.57;102403.38;5028390;28;20066;-83
2022/10/07 03:32:48;;;;;;;5.82;3.00;;;;;;;9.99;87.02;102397.50;5045111;28;20029;-82
2022/10/07 03:35:15;;;;;;;13.93;4.00;;;;;;;9.89;88.10;102409.09;5033823;28;20017;-82
2022/10/07 03:37:41;;;;;;;10.60;3.92;;;;;;;9.81;88.03;102401.53;5032508;28;20048;-82
2022/10/07 03:40:07;;;;;;;9.30;3.45;;;;;;;9.96;87.14;102410.19;5024953;28;20550;-82
2022/10/07 03:42:32;;;;;;;16.15;4.13;;;;;;;9.88;87.34;102397.06;5042659;28;20025;-82
2022/10/07 03:44:58;;;;;;;10.43;3.88;;;;;;;9.55;90.37;102399.69;5031220;28;20044;-83
2022/10/07 03:47:23;;;;;;;9.70;4.07;;;;;;;9.62;90.13;102393.56;5044651;28;20029;-82
2022/10/07 03:49:49;;;;;;;16.13;4.70;;;;;;;9.71;88.70;102395.16;5045716;28;20032;-82
2022/10/07 03:52:14;;;;;;;8.07;4.45;;;;;;;9.80;88.39;102400.72;5051655;28;20028;-82
2022/10/07 03:54:40;;;;;;;10.18;5.13;;;;;;;9.37;91.45;102393.31;5029433;28;20077;-83
2022/10/07 03:57:48;;;;;;;14.27;5.10;;;;;;;9.36;91.41;102392.47;5049623;28;20119;-82
2022/10/07 03:59:52;;;;;;;12.38;4.05;;;;;;;9.65;90.32;102395.69;5040395;28;20036;-82
2022/10/07 04:02:18;;;;;;;10.80;5.10;;;;;;;9.62;89.66;102391.59;5054314;28;20012;-82
2022/10/07 04:04:43;;;;;;;13.02;4.35;;;;;;;9.72;88.94;102393.19;5026909;28;20515;-82
2022/10/07 04:07:08;;;;;;;13.98;4.00;;;;;;;9.87;87.45;102389.84;5033463;28;20048;-82
2022/10/07 04:09:34;;;;;;;7.93;4.28;;;;;;;9.65;89.80;102384.50;5028400;28;20167;-82
2022/10/07 04:12:00;;;;;;;17.88;5.03;;;;;;;9.55;91.16;102385.69;5043976;28;20056;-83
2022/10/07 04:14:25;;;;;;;11.48;3.58;;;;;;;9.84;88.10;102378.50;5028483;28;20126;-82
2022/10/07 04:16:51;;;;;;;11.27;4.22;;;;;;;9.82;88.20;102380.81;5029068;28;20028;-83
2022/10/07 04:19:16;;;;;;;15.73;5.00;;;;;;;9.58;90.32;102376.63;5032056;28;20033;-82
2022/10/07 04:21:41;;;;;;;13.20;5.38;;;;;;;9.51;90.17;102368.75;5045442;28;20024;-82
2022/10/07 04:24:06;;;;;;;13.25;4.68;;;;;;;9.31;92.69;102361.91;5042608;28;20024;-83
2022/10/07 04:26:32;;;;;;;10.45;5.25;;;;;;;9.37;91.08;102356.97;5049484;28;20028;-82
2022/10/07 04:28:58;;;;;;;18.50;5.00;;;;;;;9.35;92.29;102371.28;5044896;28;20388;-82
2022/10/07 04:31:24;;;;;;;17.45;5.25;;;;;;;9.32;93.09;102371.13;5045785;28;20041;-82
2022/10/07 04:33:50;;;;;;;15.38;6.25;;;;;;;9.43;91.36;102363.22;5031081;28;20431;-82
2022/10/07 04:36:15;;;;;;;12.95;5.50;;;;;;;9.34;92.64;102366.03;5030988;28;20040;-82
2022/10/07 04:38:41;;;;;;;12.88;5.32;;;;;;;9.31;92.78;102355.50;5045393;28;20128;-83
2022/10/07 04:41:06;;;;;;;14.75;4.85;;;;;;;9.55;90.90;102355.75;5042145;28;20120;-82
2022/10/07 04:43:33;;;;;;;13.20;5.38;;;;;;;9.80;88.89;102355.16;5025337;28;20029;-82
2022/10/07 04:46:04;;;;;;;14.50;5.15;;;;;;;9.78;89.69;102358.28;5045202;28;20024;-82
2022/10/07 04:48:29;;;;;;;17.13;5.03;;;;;;;9.43;92.05;102360.41;5025982;28;20032;-82
2022/10/07 04:51:03;;;;;;;9.32;4.15;;;;;;;9.52;90.91;102356.41;5043279;28;20025;-83
2022/10/07 04:53:30;;;;;;;12.85;4.60;;;;;;;9.53;90.85;102358.06;5031118;28;20049;-82
2022/10/07 04:55:57;;;;;;;11.68;4.75;;;;;;;9.65;89.60;102364.91;5042980;28;20049;-83
2022/10/07 04:58:22;;;;;;;13.02;4.95;;;;;;;9.68;89.87;102364.28;5043275;28;20491;-83
2022/10/07 05:00:50;;;;;;;13.93;4.80;;;;;;;9.60;91.26;102356.72;5038141;28;20067;-83
2022/10/07 05:03:16;;;;;;;12.50;4.82;;;;;;;9.54;90.45;102354.09;5029008;28;20124;-83
2022/10/07 05:05:44;;;;;;;10.75;4.65;;;;;;;9.50;91.43;102343.94;5042723;28;20401;-82
2022/10/07 05:08:11;;;;;;;14.02;5.55;;;;;;;9.59;91.10;102349.47;5042055;28;20920;-82
2022/10/07 05:10:38;;;;;;;11.30;4.90;;;;;;;9.70;90.58;102348.78;5026265;28;20029;-83
2022/10/07 05:13:05;;;;;;;15.32;4.55;;;;;;;9.85;88.45;102330.63;5032998;28;22059;-82
2022/10/07 05:15:30;;;;;;;17.27;5.50;;;;;;;9.79;89.24;102334.75;5018516;28;20119;-82
2022/10/07 05:17:56;;;;;;;11.48;4.63;;;;;;;9.59;90.02;102327.13;5042387;28;20032;-83
2022/10/07 05:20:25;;;;;;;18.40;5.10;;;;;;;9.42;92.49;102336.41;5046740;28;20040;-82
2022/10/07 05:22:50;;;;;;;16.98;5.57;;;;;;;9.34;92.90;102327.72;5019284;28;20147;-83
2022/10/07 05:25:15;;;;;;;17.23;5.18;;;;;;;9.54;91.73;102337.34;5039612;28;20063;-82
2022/10/07 05:27:41;;;;;;;11.50;5.05;;;;;;;9.44;92.51;102332.09;5031645;28;20066;-83
2022/10/07 05:30:08;;;;;;;12.60;5.25;;;;;;;9.49;91.36;102337.53;5036168;28;20025;-83
2022/10/07 05:32:33;;;;;;;21.40;6.78;;;;;;;9.34;93.37;102340.88;5038396;28;20424;-83
2022/10/07 05:34:59;;;;;;;13.00;5.07;;;;;;;9.40;92.91;102342.31;5038437;28;20163;-82
2022/10/07 05:37:24;;;;;;;18.27;5.78;;;;;;;9.31;93.50;102324.78;5043325;28;20058;-83
2022/10/07 05:39:50;;;;;;;14.60;4.55;;;;;;;9.39;92.74;102323.09;5036333;28;20029;-82
2022/10/07 05:42:16;;;;;;;15.48;6.15;;;;;;;9.30;92.86;102325.94;5019583;28;20393;-83
2022/10/07 05:44:41;;;;;;;18.83;5.20;;;;;;;9.40;93.12;102325.53;5048800;28;20048;-83
2022/10/07 05:47:07;;;;;;;15.40;5.80;;;;;;;9.32;93.04;102330.03;5035007;28;20059;-82
2022/10/07 05:49:32;;;;;;;16.30;6.32;;;;;;;9.16;94.26;102320.53;5021105;28;20025;-83
2022/10/07 05:51:57;;;;;;;16.80;5.60;;;;;;;9.41;92.60;102330.00;5037174;28;20032;-82
2022/10/07 05:54:23;;;;;;;15.00;5.10;;;;;;;9.50;92.01;102321.56;5018167;28;20049;-84
2022/10/07 05:56:48;;;;;;;8.93;4.45;;;;;;;9.32;92.96;102318.03;5016677;28;20033;-81
2022/10/07 05:59:14;;;;;;;15.60;5.97;;;;;;;9.13;94.92;102316.44;5034986;28;20556;-81
2022/10/07 06:01:41;;;;;;;14.05;5.57;;;;;;;9.42;92.49;102320.44;5024420;28;20022;-81
2022/10/07 06:04:07;;;;;;;13.68;5.40;;;;;;;9.32;92.72;102312.44;5011029;28;20028;-84
2022/10/07 06:06:34;;;;;;;23.58;6.35;;;;;;;9.32;94.48;102295.69;5025653;28;20037;-81
2022/10/07 06:13:06;;;;;;;42.47;7.68;;;;;;;9.52;91.71;102300.50;5018742;28;20116;-83
2022/10/07 06:14:29;;;;;;;12.43;5.15;;;;;;;9.70;91.53;102311.63;5036245;28;20051;-83
2022/10/07 06:16:54;;;;;;;18.92;5.60;;;;;;;9.54;91.88;102314.97;5023282;28;20477;-83
2022/10/07 06:19:22;;;;;;;20.45;5.82;;;;;;;9.63;91.75;102311.31;5042711;28;20071;-82
2022/10/07 06:21:50;;;;;;;13.45;6.07;;;;;;;9.80;90.20;102318.78;5025950;28;20135;-82
2022/10/07 06:24:15;;;;;;;15.30;5.43;;;;;;;9.73;91.00;102314.56;5041869;28;20039;-81
2022/10/07 06:26:41;;;;;;;13.38;4.68;;;;;;;9.39;93.39;102321.13;5037295;28;20373;-82
2022/10/07 06:29:07;;;;;;;13.18;5.28;;;;;;;9.59;92.05;102310.34;5047060;28;20033;-82
2022/10/07 06:31:33;;;;;;;18.02;6.05;;;;;;;9.48;92.82;102312.69;5043016;28;20033;-82
2022/10/07 06:33:58;;;;;;;17.40;5.05;;;;;;;9.74;91.26;102320.97;5045229;28;20098;-81
2022/10/07 06:36:24;;;;;;;16.73;4.72;;;;;;;9.79;91.28;102326.38;5032148;28;20484;-81
2022/10/07 06:38:51;;;;;;;16.42;5.28;;;;;;;9.60;92.30;102318.41;5024240;28;21207;-82
2022/10/07 06:41:17;;;;;;;20.98;4.90;;;;;;;9.71;91.73;102310.47;5043431;28;20086;-81
2022/10/07 06:43:42;;;;;;;12.60;5.03;;;;;;;9.84;91.21;102312.19;5025431;28;20017;-82
2022/10/07 06:46:13;;;;;;;20.25;5.90;;;;;;;9.71;92.68;102318.84;5054691;28;20051;-83
2022/10/07 06:48:40;;;;;;;18.75;4.82;;;;;;;9.55;94.30;102311.03;5031274;28;20031;-84
2022/10/07 06:51:05;;;;;;;19.77;4.60;;;;;;;9.55;93.97;102316.63;5028474;28;20033;-84
2022/10/07 06:53:31;;;;;;;14.68;5.60;;;;;;;9.54;94.62;102322.53;5029275;28;20056;-84
2022/10/07 06:56:01;;;;;;;16.10;6.25;;;;;;;9.49;95.24;102315.16;5035972;28;20542;-84
2022/10/07 06:58:26;;;;;;;15.93;4.88;;;;;;;9.43;96.05;102324.09;5033089;28;20025;-85
2022/10/07 07:00:53;;;;;;;13.77;4.20;;;;;;;9.60;93.83;102317.59;5029168;28;20420;-83
2022/10/07 07:03:19;;;;;;;14.55;4.90;;;;;;;9.63;93.67;102328.09;5046036;28;20016;-84
2022/10/07 07:05:45;;;;;;;16.42;6.38;;;;;;;9.62;94.30;102320.88;5029220;28;20028;-84
2022/10/07 07:08:12;;;;;;;18.55;4.50;;;;;;;9.53;94.17;102313.34;5038528;28;20477;-84
2022/10/07 07:10:42;;;;;;;17.42;5.13;;;;;;;9.71;94.57;102335.63;5035929;28;20452;-84
2022/10/07 07:13:11;;;;;;;20.13;4.78;;;;;;;9.87;93.41;102333.09;5045910;28;20120;-83
2022/10/07 07:15:37;;;;;;;17.85;4.20;;;;;;;9.85;93.98;102336.22;5035642;28;20028;-85
2022/10/07 07:18:06;;;;;;;15.45;4.68;;;;;;;9.95;92.54;102326.59;5039178;28;20036;-84
2022/10/07 07:20:36;;;;;;;14.30;4.07;;;;;;;9.82;94.42;102314.50;5039609;28;20047;-84
2022/10/07 07:23:03;;;;;;;13.10;4.65;;;;;;;9.83;94.55;102324.53;5034472;28;20492;-85
2022/10/07 07:25:31;;;;;;;18.27;5.00;;;;;;;9.91;94.29;102323.69;5045856;28;20388;-83
2022/10/07 07:28:00;;;;;;;16.33;4.45;;;;;;;9.88;94.79;102315.94;5039191;28;20036;-83
2022/10/07 07:30:26;;;;;;;13.95;4.15;;;;;;;9.83;95.49;102318.94;5048549;28;20029;-84
2022/10/07 07:32:52;;;;;;;15.90;4.85;;;;;;;9.95;94.99;102323.78;5041564;28;20029;-84
2022/10/07 07:35:17;;;;;;;19.70;5.70;;;;;;;10.00;94.47;102306.03;5030883;28;20032;-84
2022/10/07 07:37:42;;;;;;;14.23;4.65;;;;;;;10.02;94.14;102301.72;5034326;28;20025;-83
2022/10/07 07:40:08;;;;;;;12.60;3.90;;;;;;;10.16;93.51;102301.44;5031062;28;20492;-83
2022/10/07 07:42:34;;;;;;;15.73;4.68;;;;;;;10.17;94.80;102298.31;5033107;28;20397;-85
2022/10/07 07:44:59;;;;;;;19.98;4.85;;;;;;;10.27;95.32;102302.69;5037171;28;20119;-83
2022/10/07 07:47:26;;;;;;;12.30;4.22;;;;;;;10.37;95.28;102302.31;5045803;28;20116;-85
2022/10/07 07:49:52;;;;;;;18.25;5.50;;;;;;;10.41;93.09;102302.44;5052936;28;20029;-85
2022/10/07 07:52:18;;;;;;;10.13;3.95;;;;;;;10.57;93.59;102311.03;5049650;28;20063;-85
2022/10/07 07:54:43;;;;;;;12.98;3.33;;;;;;;10.65;93.08;102300.94;5024128;28;20033;-84
2022/10/07 07:57:09;;;;;;;15.60;3.78;;;;;;;10.74;93.06;102296.88;5053309;28;20055;-84
2022/10/07 07:59:37;;;;;;;13.63;3.95;;;;;;;10.82;93.24;102295.16;5052154;28;20072;-83
2022/10/07 08:02:04;;;;;;;14.85;3.95;;;;;;;10.95;92.72;102280.00;5035841;28;20595;-84
2022/10/07 08:04:30;;;;;;;15.43;3.50;;;;;;;10.97;92.55;102277.69;5035386;28;20119;-84
2022/10/07 08:06:55;;;;;;;16.52;3.45;;;;;;;11.15;90.71;102281.13;5028505;28;20051;-84
2022/10/07 08:09:21;;;;;;;9.45;2.92;;;;;;;11.23;90.08;102286.97;5051481;28;20433;-85
2022/10/07 08:11:46;;;;;;;11.20;3.70;;;;;;;11.22;90.78;102279.72;5043506;28;20037;-84
2022/10/07 08:14:12;;;;;;;14.90;4.15;;;;;;;11.26;89.23;102281.47;5022234;28;20025;-85
2022/10/07 08:16:38;;;;;;;10.73;3.92;;;;;;;11.42;89.54;102278.78;5027656;28;20106;-84
2022/10/07 08:19:04;;;;;;;23.10;5.25;;;;;;;11.53;89.73;102282.78;5036992;28;20032;-85
2022/10/07 08:21:33;;;;;;;12.27;3.80;;;;;;;11.58;89.14;102282.53;5033454;28;20054;-85
2022/10/07 08:24:00;;;;;;;11.93;3.60;;;;;;;11.54;88.68;102278.00;5045012;28;20111;-86
2022/10/07 08:26:27;;;;;;;21.88;4.10;;;;;;;11.57;88.05;102283.72;5029476;28;20047;-86
2022/10/07 08:28:53;;;;;;;17.85;4.35;;;;;;;11.56;88.50;102282.06;5033447;28;20036;-85
2022/10/07 08:31:19;;;;;;;10.98;2.92;;;;;;;11.85;87.64;102285.81;5040328;28;20383;-85
2022/10/07 08:33:47;;;;;;;19.45;3.47;;;;;;;12.10;88.03;102278.19;5046411;28;20037;-86
2022/10/07 08:36:21;;;;;;;12.63;3.42;;;;;;;11.97;87.62;102271.81;5047133;28;20055;-86
2022/10/07 08:38:48;;;;;;;11.68;3.10;;;;;;;12.08;87.39;102271.28;5048788;28;20033;-87
2022/10/07 08:41:41;;;;;;;10.63;2.55;;;;;;;12.16;87.53;102273.97;5028629;28;20025;-86
2022/10/07 08:44:12;;;;;;;9.65;3.03;;;;;;;12.26;86.96;102258.59;5034684;28;20115;-87
2022/10/07 08:46:47;;;;;;;13.30;2.53;;;;;;;12.12;86.60;102232.91;5038498;28;20562;-86
2022/10/07 08:49:17;;;;;;;19.70;4.25;;;;;;;12.15;87.63;102255.50;5028905;28;20544;-86
2022/10/07 08:51:49;;;;;;;16.95;4.20;;;;;;;12.36;85.12;102257.31;5032364;28;20427;-85
2022/10/07 08:54:17;;;;;;;9.10;2.53;;;;;;;12.33;85.11;102253.22;5051506;28;20390;-86
2022/10/07 08:56:43;;;;;;;8.50;2.92;;;;;;;12.33;86.37;102239.19;5043480;28;20035;-86
2022/10/07 08:59:14;;;;;;;11.27;3.47;;;;;;;12.78;85.48;102249.25;5025588;28;20074;-86
2022/10/07 09:02:12;;;;;;;17.63;3.28;;;;;;;12.87;84.53;102253.91;5037846;28;20033;-87
2022/10/07 09:04:59;;;;;;;15.88;2.47;;;;;;;12.99;84.87;102253.81;5050380;28;20050;-87
2022/10/07 09:07:35;;;;;;;13.55;2.63;;;;;;;13.21;84.61;102250.38;5049257;28;20104;-87
2022/10/07 09:10:08;;;;;;;16.30;3.92;;;;;;;13.36;83.07;102240.31;5049029;28;20033;-87
2022/10/07 09:12:43;;;;;;;13.23;2.30;;;;;;;13.31;82.44;102251.06;5049427;28;20032;-86
2022/10/07 09:15:20;;;;;;;12.88;3.33;;;;;;;13.37;83.15;102238.34;5032488;28;20043;-86
2022/10/07 09:17:53;;;;;;;13.38;3.10;;;;;;;13.44;83.13;102241.31;5034390;28;20033;-86
2022/10/07 09:20:23;;;;;;;13.82;2.70;;;;;;;13.52;83.53;102236.69;5044287;28;20037;-84
2022/10/07 09:22:53;;;;;;;15.38;2.95;;;;;;;13.48;82.61;102230.97;5032652;28;20021;-87
2022/10/07 09:25:20;;;;;;;14.10;3.38;;;;;;;13.56;83.10;102234.78;5045331;28;20035;-88
2022/10/07 09:27:47;;;;;;;7.53;2.47;;;;;;;13.36;83.62;102200.94;5032823;28;20033;-90
2022/10/07 09:30:13;;;;;;;15.65;2.90;;;;;;;13.57;83.09;102216.72;5036298;28;20033;-90
2022/10/07 09:32:43;;;;;;;11.43;3.33;;;;;;;13.86;83.03;102223.81;5035303;28;20033;-89
2022/10/07 09:35:13;;;;;;;18.42;2.42;;;;;;;13.66;84.68;102208.06;5049275;28;20369;-90
2022/10/07 09:37:53;;;;;;;10.15;2.60;;;;;;;13.89;82.60;102214.63;5052247;28;20546;-81
2022/10/07 09:40:35;;;;;;;10.80;2.67;;;;;;;13.88;81.54;102221.44;5041564;28;20334;-89
2022/10/07 09:43:08;;;;;;;9.63;2.67;;;;;;;13.99;83.15;102205.59;5050993;28;20028;-89
2022/10/07 09:45:33;;;;;;;14.77;3.08;;;;;;;13.87;82.54;102205.75;5034712;28;22986;-89
2022/10/07 09:48:16;;;;;;;18.20;3.50;;;;;;;14.12;82.68;102209.09;5048625;28;20021;-89
2022/10/07 09:50:42;;;;;;;23.48;4.70;;;;;;;14.20;82.64;102210.06;5034963;28;20059;-88
2022/10/07 09:53:22;;;;;;;21.67;3.65;;;;;;;14.46;82.76;102200.91;5044101;28;20033;-88
2022/10/07 09:55:50;;;;;;;13.27;3.63;;;;;;;14.44;82.46;102204.13;5014758;28;20316;-88
2022/10/07 09:58:19;;;;;;;12.40;4.03;;;;;;;14.58;81.80;102197.16;5031034;28;20036;-86
2022/10/07 10:00:47;;;;;;;14.10;2.85;;;;;;;14.47;80.22;102188.47;5012787;28;20495;-88
2022/10/07 10:03:14;;;;;;;14.23;3.70;;;;;;;14.54;82.00;102182.16;5019848;28;20401;-89
2022/10/07 10:05:51;;;;;;;19.95;4.03;;;;;;;14.66;81.32;102186.84;5018455;28;20439;-87
2022/10/07 10:08:17;;;;;;;12.65;4.22;;;;;;;14.63;81.83;102194.88;5014531;28;20109;-89
2022/10/07 10:10:53;;;;;;;16.33;3.70;;;;;;;14.69;81.53;102192.53;5015809;28;20597;-86
2022/10/07 10:13:31;;;;;;;16.92;3.63;;;;;;;14.56;81.59;102172.16;5035842;28;20402;-89
2022/10/07 10:15:57;;;;;;;16.25;3.83;;;;;;;14.75;81.62;102179.75;5031240;28;20128;-88
2022/10/07 10:18:40;;;;;;;14.18;3.20;;;;;;;14.89;81.57;102179.22;5013516;28;20084;-87
2022/10/07 10:21:40;;;;;;;17.42;3.30;;;;;;;14.71;80.62;102170.44;5014570;28;20482;-87
2022/10/07 10:24:13;;;;;;;14.07;3.65;;;;;;;14.64;82.46;102164.66;4994972;28;20034;-85
2022/10/07 10:26:46;;;;;;;17.27;3.67;;;;;;;14.68;82.83;102168.38;4977157;28;20042;-87
2022/10/07 10:29:28;;;;;;;17.15;3.53;;;;;;;14.82;81.79;102157.34;5023442;28;20042;-86
2022/10/07 10:32:00;;;;;;;8.77;3.20;;;;;;;14.87;81.62;102159.03;5016434;28;20064;-87
2022/10/07 10:34:50;;;;;;;26.13;3.70;;;;;;;15.07;80.93;102154.13;5015682;28;20037;-89
2022/10/07 10:37:23;;;;;;;14.05;3.65;;;;;;;14.97;82.22;102157.59;5014232;28;20066;-87
2022/10/07 10:40:10;;;;;;;12.00;4.30;;;;;;;14.99;80.95;102152.41;5026184;28;20642;-87
2022/10/07 10:42:58;;;;;;;17.70;3.72;;;;;;;15.18;80.21;102151.50;5025556;28;20493;-88
2022/10/07 10:45:36;;;;;;;19.08;3.47;;;;;;;15.05;80.61;102125.47;5023651;28;20022;-88
2022/10/07 10:48:28;;;;;;;11.98;2.90;;;;;;;15.32;79.94;102140.41;5034156;28;20030;-88
2022/10/07 10:50:59;;;;;;;15.30;4.28;;;;;;;15.32;79.44;102139.59;5027746;28;20033;-88
2022/10/07 10:53:39;;;;;;;11.48;3.45;;;;;;;15.14;79.75;102128.06;5031947;28;20022;-86
2022/10/07 10:56:30;;;;;;;18.30;4.13;;;;;;;15.44;79.04;102123.25;5041468;28;20032;-88
2022/10/07 10:59:24;;;;;;;14.05;3.95;;;;;;;15.47;79.42;102118.84;5033661;28;20685;-89
2022/10/07 11:02:16;;;;;;;20.23;4.80;;;;;;;15.54;79.00;102107.69;5035624;28;20017;-88
2022/10/07 11:04:49;;;;;;;22.60;4.63;;;;;;;15.57;79.61;102115.38;5034645;28;20539;-88
2022/10/07 11:07:24;;;;;;;12.13;3.78;;;;;;;15.79;79.08;102101.56;5046268;28;20021;-89
2022/10/07 11:10:06;;;;;;;14.13;2.88;;;;;;;15.70;79.40;102103.84;5041272;28;20029;-89
2022/10/07 11:12:40;;;;;;;10.52;2.97;;;;;;;15.73;79.83;102097.47;5036771;28;20119;-89
2022/10/07 11:15:20;;;;;;;14.32;4.68;;;;;;;15.63;79.23;102105.38;5038947;28;20075;-89
2022/10/07 11:17:49;;;;;;;19.23;3.28;;;;;;;15.61;79.83;102104.94;5060734;28;20063;-89
2022/10/07 11:20:30;;;;;;;16.35;3.53;;;;;;;15.50;79.57;102087.06;5048280;28;20060;-86
2022/10/07 11:23:02;;;;;;;13.43;2.95;;;;;;;15.62;78.79;102081.19;5050872;28;20043;-88
2022/10/07 11:25:35;;;;;;;18.17;3.17;;;;;;;15.81;77.97;102087.88;5037357;28;20028;-87
2022/10/07 11:28:14;;;;;;;9.52;2.85;;;;;;;15.60;78.62;102074.28;5030580;28;20084;-90
2022/10/07 11:30:49;;;;;;;12.25;3.20;;;;;;;15.36;78.97;102078.41;5045908;28;20034;-88
2022/10/07 11:33:22;;;;;;;13.57;2.97;;;;;;;15.60;78.04;102077.94;5044397;28;20021;-87
2022/10/07 11:35:54;;;;;;;6.72;2.83;;;;;;;15.63;76.67;102082.81;5051322;28;20081;-90
2022/10/07 11:38:33;;;;;;;9.27;2.90;;;;;;;15.70;76.39;102069.97;5044982;28;20472;-89
2022/10/07 11:41:34;;;;;;;9.88;2.60;;;;;;;15.91;74.62;102075.91;5022987;28;20075;-88